sensor_id;sensor_type;location;lat;lon;timestamp;temperature;humidity
45945;DHT22;31655;48.972;10.686;2024-02-15T00:01:54;8.40;99.90
45945;DHT22;31655;48.972;10.686;2024-02-15T00:04:19;8.50;99.90
45945;DHT22;31655;48.972;10.686;2024-02-15T00:06:45;8.50;99.90
45945;DHT22;31655;48.972;10.686;2024-02-15T00:09:11;8.40;99.90
45945;DHT22;31655;48.972;10.686;2024-02-15T00:11:36;10.30;99.90
45945;DHT22;31655;48.972;10.686;2024-02-15T00:14:03;10.00;99.90
45945;DHT22;31655;48.972;10.686;2024-02-15T00:16:29;8.30;99.90
45945;DHT22;31655;48.972;10.686;2024-02-15T00:18:55;8.70;99.90
45945;DHT22;31655;48.972;10.686;2024-02-15T00:21:21;8.20;99.90
45945;DHT22;31655;48.972;10.686;2024-02-15T00:23:48;8.20;99.90
45945;DHT22;31655;48.972;10.686;2024-02-15T00:26:14;8.20;99.90
45945;DHT22;31655;48.972;10.686;2024-02-15T00:28:41;9.80;99.90
45945;DHT22;31655;48.972;10.686;2024-02-15T00:31:07;8.20;99.90
45945;DHT22;31655;48.972;10.686;2024-02-15T00:33:33;8.30;99.90
45945;DHT22;31655;48.972;10.686;2024-02-15T00:35:59;9.40;99.90
45945;DHT22;31655;48.972;10.686;2024-02-15T00:38:24;8.30;99.90
45945;DHT22;31655;48.972;10.686;2024-02-15T00:40:51;8.30;99.90
45945;DHT22;31655;48.972;10.686;2024-02-15T00:43:16;8.20;99.90
45945;DHT22;31655;48.972;10.686;2024-02-15T00:45:42;8.30;99.90
45945;DHT22;31655;48.972;10.686;2024-02-15T00:48:07;8.30;99.90
45945;DHT22;31655;48.972;10.686;2024-02-15T00:50:33;8.30;99.90
45945;DHT22;31655;48.972;10.686;2024-02-15T00:52:58;8.20;99.90
45945;DHT22;31655;48.972;10.686;2024-02-15T00:55:24;8.20;99.90
45945;DHT22;31655;48.972;10.686;2024-02-15T00:57:49;8.30;99.90
45945;DHT22;31655;48.972;10.686;2024-02-15T01:00:15;8.20;99.90
45945;DHT22;31655;48.972;10.686;2024-02-15T01:02:41;8.30;99.90
45945;DHT22;31655;48.972;10.686;2024-02-15T01:05:06;8.20;99.90
45945;DHT22;31655;48.972;10.686;2024-02-15T01:07:32;8.20;99.90
45945;DHT22;31655;48.972;10.686;2024-02-15T01:09:58;8.20;99.90
45945;DHT22;31655;48.972;10.686;2024-02-15T01:12:24;8.20;99.90
45945;DHT22;31655;48.972;10.686;2024-02-15T01:14:49;8.20;99.90
45945;DHT22;31655;48.972;10.686;2024-02-15T01:17:15;8.20;99.90
45945;DHT22;31655;48.972;10.686;2024-02-15T01:19:41;8.20;99.90
45945;DHT22;31655;48.972;10.686;2024-02-15T01:22:06;8.20;99.90
45945;DHT22;31655;48.972;10.686;2024-02-15T01:24:32;8.20;99.90
45945;DHT22;31655;48.972;10.686;2024-02-15T01:26:58;8.20;99.90
45945;DHT22;31655;48.972;10.686;2024-02-15T01:29:23;8.30;99.90
45945;DHT22;31655;48.972;10.686;2024-02-15T01:31:52;8.30;99.90
45945;DHT22;31655;48.972;10.686;2024-02-15T01:34:17;8.30;99.90
45945;DHT22;31655;48.972;10.686;2024-02-15T01:36:43;8.20;99.90
45945;DHT22;31655;48.972;10.686;2024-02-15T01:39:08;8.30;99.90
45945;DHT22;31655;48.972;10.686;2024-02-15T01:41:34;8.20;99.90
45945;DHT22;31655;48.972;10.686;2024-02-15T01:43:59;8.20;99.90
45945;DHT22;31655;48.972;10.686;2024-02-15T01:46:25;7.40;99.90
45945;DHT22;31655;48.972;10.686;2024-02-15T01:48:51;9.90;99.90
45945;DHT22;31655;48.972;10.686;2024-02-15T01:51:17;8.20;99.90
45945;DHT22;31655;48.972;10.686;2024-02-15T01:53:43;8.20;99.90
45945;DHT22;31655;48.972;10.686;2024-02-15T01:56:11;8.20;99.90
45945;DHT22;31655;48.972;10.686;2024-02-15T01:58:39;8.20;99.90
45945;DHT22;31655;48.972;10.686;2024-02-15T02:01:05;8.10;99.90
45945;DHT22;31655;48.972;10.686;2024-02-15T02:03:31;8.10;99.90
45945;DHT22;31655;48.972;10.686;2024-02-15T02:05:57;8.10;99.90
45945;DHT22;31655;48.972;10.686;2024-02-15T02:08:23;8.10;99.90
45945;DHT22;31655;48.972;10.686;2024-02-15T02:10:50;8.10;99.90
45945;DHT22;31655;48.972;10.686;2024-02-15T02:13:15;8.10;99.90
45945;DHT22;31655;48.972;10.686;2024-02-15T02:15:41;8.20;99.90
45945;DHT22;31655;48.972;10.686;2024-02-15T02:18:06;8.30;99.90
45945;DHT22;31655;48.972;10.686;2024-02-15T02:20:34;8.30;99.90
45945;DHT22;31655;48.972;10.686;2024-02-15T02:23:04;8.30;99.90
45945;DHT22;31655;48.972;10.686;2024-02-15T02:25:32;8.40;99.90
45945;DHT22;31655;48.972;10.686;2024-02-15T02:27:59;8.40;99.90
45945;DHT22;31655;48.972;10.686;2024-02-15T02:30:25;8.30;99.90
45945;DHT22;31655;48.972;10.686;2024-02-15T02:32:57;8.40;99.90
45945;DHT22;31655;48.972;10.686;2024-02-15T02:35:24;8.30;99.90
45945;DHT22;31655;48.972;10.686;2024-02-15T02:37:50;8.20;99.90
45945;DHT22;31655;48.972;10.686;2024-02-15T02:40:18;8.30;99.90
45945;DHT22;31655;48.972;10.686;2024-02-15T02:43:04;8.30;99.90
45945;DHT22;31655;48.972;10.686;2024-02-15T02:45:30;8.20;99.90
45945;DHT22;31655;48.972;10.686;2024-02-15T02:47:55;7.90;99.90
45945;DHT22;31655;48.972;10.686;2024-02-15T02:50:22;8.20;99.90
45945;DHT22;31655;48.972;10.686;2024-02-15T02:52:48;8.30;99.90
45945;DHT22;31655;48.972;10.686;2024-02-15T02:55:14;8.30;99.90
45945;DHT22;31655;48.972;10.686;2024-02-15T02:57:40;8.30;99.90
45945;DHT22;31655;48.972;10.686;2024-02-15T03:00:11;8.30;99.90
45945;DHT22;31655;48.972;10.686;2024-02-15T03:02:46;8.40;99.90
45945;DHT22;31655;48.972;10.686;2024-02-15T03:05:11;8.30;99.90
45945;DHT22;31655;48.972;10.686;2024-02-15T03:07:39;8.30;99.90
45945;DHT22;31655;48.972;10.686;2024-02-15T03:10:06;8.30;99.90
45945;DHT22;31655;48.972;10.686;2024-02-15T03:12:38;8.40;99.90
45945;DHT22;31655;48.972;10.686;2024-02-15T03:15:05;8.30;99.90
45945;DHT22;31655;48.972;10.686;2024-02-15T03:17:39;8.20;99.90
45945;DHT22;31655;48.972;10.686;2024-02-15T03:20:07;8.20;99.90
45945;DHT22;31655;48.972;10.686;2024-02-15T03:22:37;8.20;99.90
45945;DHT22;31655;48.972;10.686;2024-02-15T03:25:04;8.20;99.90
45945;DHT22;31655;48.972;10.686;2024-02-15T03:27:35;8.20;99.90
45945;DHT22;31655;48.972;10.686;2024-02-15T03:30:02;8.20;99.90
45945;DHT22;31655;48.972;10.686;2024-02-15T03:32:29;8.20;99.90
45945;DHT22;31655;48.972;10.686;2024-02-15T03:34:55;8.20;99.90
45945;DHT22;31655;48.972;10.686;2024-02-15T03:37:21;8.20;99.90
45945;DHT22;31655;48.972;10.686;2024-02-15T03:39:46;8.20;99.90
45945;DHT22;31655;48.972;10.686;2024-02-15T03:42:12;8.10;99.90
45945;DHT22;31655;48.972;10.686;2024-02-15T03:44:38;8.20;99.90
45945;DHT22;31655;48.972;10.686;2024-02-15T03:47:04;8.20;99.90
45945;DHT22;31655;48.972;10.686;2024-02-15T03:49:30;8.30;99.90
45945;DHT22;31655;48.972;10.686;2024-02-15T03:51:57;8.20;99.90
45945;DHT22;31655;48.972;10.686;2024-02-15T03:54:25;8.20;99.90
45945;DHT22;31655;48.972;10.686;2024-02-15T03:56:51;8.20;99.90
45945;DHT22;31655;48.972;10.686;2024-02-15T03:59:18;8.20;99.90
45945;DHT22;31655;48.972;10.686;2024-02-15T04:01:47;8.20;99.90
45945;DHT22;31655;48.972;10.686;2024-02-15T04:04:13;8.20;99.90
45945;DHT22;31655;48.972;10.686;2024-02-15T04:06:39;8.10;99.90
45945;DHT22;31655;48.972;10.686;2024-02-15T04:09:05;8.10;99.90
45945;DHT22;31655;48.972;10.686;2024-02-15T04:11:32;8.10;99.90
45945;DHT22;31655;48.972;10.686;2024-02-15T04:13:59;8.10;99.90
45945;DHT22;31655;48.972;10.686;2024-02-15T04:16:24;8.00;99.90
45945;DHT22;31655;48.972;10.686;2024-02-15T04:18:51;8.00;99.90
45945;DHT22;31655;48.972;10.686;2024-02-15T04:21:17;8.00;99.90
45945;DHT22;31655;48.972;10.686;2024-02-15T04:23:45;8.00;99.90
45945;DHT22;31655;48.972;10.686;2024-02-15T04:26:11;7.90;99.90
45945;DHT22;31655;48.972;10.686;2024-02-15T04:28:39;8.00;99.90
45945;DHT22;31655;48.972;10.686;2024-02-15T04:31:05;7.90;99.90
45945;DHT22;31655;48.972;10.686;2024-02-15T04:33:34;7.90;99.90
45945;DHT22;31655;48.972;10.686;2024-02-15T04:35:59;7.90;99.90
45945;DHT22;31655;48.972;10.686;2024-02-15T04:38:29;7.90;99.90
45945;DHT22;31655;48.972;10.686;2024-02-15T04:40:54;7.90;99.90
45945;DHT22;31655;48.972;10.686;2024-02-15T04:43:20;7.90;99.90
45945;DHT22;31655;48.972;10.686;2024-02-15T04:45:45;7.90;99.90
45945;DHT22;31655;48.972;10.686;2024-02-15T04:48:11;7.90;99.90
45945;DHT22;31655;48.972;10.686;2024-02-15T04:50:39;7.90;99.90
45945;DHT22;31655;48.972;10.686;2024-02-15T04:53:08;7.80;99.90
45945;DHT22;31655;48.972;10.686;2024-02-15T04:55:34;7.90;99.90
45945;DHT22;31655;48.972;10.686;2024-02-15T04:58:01;7.90;99.90
45945;DHT22;31655;48.972;10.686;2024-02-15T05:00:27;7.90;99.90
45945;DHT22;31655;48.972;10.686;2024-02-15T05:02:52;7.90;99.90
45945;DHT22;31655;48.972;10.686;2024-02-15T05:05:19;7.90;99.90
45945;DHT22;31655;48.972;10.686;2024-02-15T05:07:44;8.00;99.90
45945;DHT22;31655;48.972;10.686;2024-02-15T05:10:10;8.10;99.90
45945;DHT22;31655;48.972;10.686;2024-02-15T05:12:37;8.10;99.90
45945;DHT22;31655;48.972;10.686;2024-02-15T05:15:04;8.70;99.90
45945;DHT22;31655;48.972;10.686;2024-02-15T05:17:39;8.20;99.90
45945;DHT22;31655;48.972;10.686;2024-02-15T05:20:09;8.20;99.90
45945;DHT22;31655;48.972;10.686;2024-02-15T05:22:39;8.20;99.90
45945;DHT22;31655;48.972;10.686;2024-02-15T05:25:06;8.10;99.90
45945;DHT22;31655;48.972;10.686;2024-02-15T05:27:33;8.20;99.90
45945;DHT22;31655;48.972;10.686;2024-02-15T05:29:59;8.20;99.90
45945;DHT22;31655;48.972;10.686;2024-02-15T05:32:24;8.20;99.90
45945;DHT22;31655;48.972;10.686;2024-02-15T05:34:51;8.20;99.90
45945;DHT22;31655;48.972;10.686;2024-02-15T05:37:20;8.30;99.90
45945;DHT22;31655;48.972;10.686;2024-02-15T05:39:45;8.20;99.90
45945;DHT22;31655;48.972;10.686;2024-02-15T05:42:11;8.20;99.90
45945;DHT22;31655;48.972;10.686;2024-02-15T05:44:37;8.20;99.90
45945;DHT22;31655;48.972;10.686;2024-02-15T05:47:02;8.20;99.90
45945;DHT22;31655;48.972;10.686;2024-02-15T05:49:28;8.20;99.90
45945;DHT22;31655;48.972;10.686;2024-02-15T05:51:53;8.20;99.90
45945;DHT22;31655;48.972;10.686;2024-02-15T05:54:19;8.20;99.90
45945;DHT22;31655;48.972;10.686;2024-02-15T05:56:48;8.20;99.90
45945;DHT22;31655;48.972;10.686;2024-02-15T05:59:17;8.20;99.90
45945;DHT22;31655;48.972;10.686;2024-02-15T06:01:45;8.20;99.90
45945;DHT22;31655;48.972;10.686;2024-02-15T06:04:11;8.20;99.90
45945;DHT22;31655;48.972;10.686;2024-02-15T06:06:38;9.70;99.90
45945;DHT22;31655;48.972;10.686;2024-02-15T06:09:04;9.40;99.90
45945;DHT22;31655;48.972;10.686;2024-02-15T06:11:30;8.10;99.90
45945;DHT22;31655;48.972;10.686;2024-02-15T06:13:55;8.10;99.90
45945;DHT22;31655;48.972;10.686;2024-02-15T06:16:21;8.00;99.90
45945;DHT22;31655;48.972;10.686;2024-02-15T06:18:47;8.00;99.90
45945;DHT22;31655;48.972;10.686;2024-02-15T06:21:13;8.00;99.90
45945;DHT22;31655;48.972;10.686;2024-02-15T06:23:39;7.90;99.90
45945;DHT22;31655;48.972;10.686;2024-02-15T06:26:04;7.90;99.90
45945;DHT22;31655;48.972;10.686;2024-02-15T06:28:30;7.90;99.90
45945;DHT22;31655;48.972;10.686;2024-02-15T06:31:14;7.80;99.90
45945;DHT22;31655;48.972;10.686;2024-02-15T06:33:59;7.80;99.90
45945;DHT22;31655;48.972;10.686;2024-02-15T06:36:48;6.60;99.90
45945;DHT22;31655;48.972;10.686;2024-02-15T06:39:33;7.70;99.90
45945;DHT22;31655;48.972;10.686;2024-02-15T06:42:08;7.70;99.90
45945;DHT22;31655;48.972;10.686;2024-02-15T06:44:33;7.70;99.90
45945;DHT22;31655;48.972;10.686;2024-02-15T06:47:00;7.60;99.90
45945;DHT22;31655;48.972;10.686;2024-02-15T06:49:26;7.60;99.90
45945;DHT22;31655;48.972;10.686;2024-02-15T06:51:52;7.60;99.90
45945;DHT22;31655;48.972;10.686;2024-02-15T06:54:21;7.60;99.90
45945;DHT22;31655;48.972;10.686;2024-02-15T06:56:48;7.60;99.90
45945;DHT22;31655;48.972;10.686;2024-02-15T06:59:14;7.60;99.90
45945;DHT22;31655;48.972;10.686;2024-02-15T07:01:43;7.60;99.90
45945;DHT22;31655;48.972;10.686;2024-02-15T07:04:09;7.60;99.90
45945;DHT22;31655;48.972;10.686;2024-02-15T07:06:36;7.70;99.90
45945;DHT22;31655;48.972;10.686;2024-02-15T07:09:03;7.80;99.90
45945;DHT22;31655;48.972;10.686;2024-02-15T07:11:29;7.80;99.90
45945;DHT22;31655;48.972;10.686;2024-02-15T07:13:55;7.90;99.90
45945;DHT22;31655;48.972;10.686;2024-02-15T07:16:22;7.90;99.90
45945;DHT22;31655;48.972;10.686;2024-02-15T07:18:48;7.90;99.90
45945;DHT22;31655;48.972;10.686;2024-02-15T07:21:13;8.00;99.90
45945;DHT22;31655;48.972;10.686;2024-02-15T07:23:42;8.10;99.90
45945;DHT22;31655;48.972;10.686;2024-02-15T07:26:08;8.10;99.90
45945;DHT22;31655;48.972;10.686;2024-02-15T07:28:34;8.20;99.90
45945;DHT22;31655;48.972;10.686;2024-02-15T07:30:59;8.30;99.90
45945;DHT22;31655;48.972;10.686;2024-02-15T07:33:28;8.40;99.90
45945;DHT22;31655;48.972;10.686;2024-02-15T07:35:54;8.50;99.90
45945;DHT22;31655;48.972;10.686;2024-02-15T07:38:20;8.70;99.90
45945;DHT22;31655;48.972;10.686;2024-02-15T07:40:51;8.80;99.90
45945;DHT22;31655;48.972;10.686;2024-02-15T07:43:16;9.00;99.90
45945;DHT22;31655;48.972;10.686;2024-02-15T07:45:42;9.20;99.90
45945;DHT22;31655;48.972;10.686;2024-02-15T07:48:07;9.40;99.90
45945;DHT22;31655;48.972;10.686;2024-02-15T07:50:33;9.50;99.90
45945;DHT22;31655;48.972;10.686;2024-02-15T07:52:59;9.70;99.90
45945;DHT22;31655;48.972;10.686;2024-02-15T07:55:24;9.70;99.90
45945;DHT22;31655;48.972;10.686;2024-02-15T07:57:51;9.90;99.90
45945;DHT22;31655;48.972;10.686;2024-02-15T08:00:18;10.80;99.90
45945;DHT22;31655;48.972;10.686;2024-02-15T08:02:44;9.90;99.90
45945;DHT22;31655;48.972;10.686;2024-02-15T08:05:10;9.90;99.90
45945;DHT22;31655;48.972;10.686;2024-02-15T08:07:44;9.90;99.90
45945;DHT22;31655;48.972;10.686;2024-02-15T08:10:10;9.90;99.90
45945;DHT22;31655;48.972;10.686;2024-02-15T08:12:43;9.90;99.90
45945;DHT22;31655;48.972;10.686;2024-02-15T08:15:09;9.90;99.90
45945;DHT22;31655;48.972;10.686;2024-02-15T08:17:39;9.90;99.90
45945;DHT22;31655;48.972;10.686;2024-02-15T08:20:15;10.00;99.90
45945;DHT22;31655;48.972;10.686;2024-02-15T08:22:47;10.10;99.90
45945;DHT22;31655;48.972;10.686;2024-02-15T08:25:13;10.20;99.90
45945;DHT22;31655;48.972;10.686;2024-02-15T08:27:42;10.10;99.90
45945;DHT22;31655;48.972;10.686;2024-02-15T08:30:12;10.30;99.90
45945;DHT22;31655;48.972;10.686;2024-02-15T08:32:38;10.50;99.90
45945;DHT22;31655;48.972;10.686;2024-02-15T08:35:05;10.70;99.90
45945;DHT22;31655;48.972;10.686;2024-02-15T08:37:32;11.20;99.90
45945;DHT22;31655;48.972;10.686;2024-02-15T08:40:00;11.90;99.90
45945;DHT22;31655;48.972;10.686;2024-02-15T08:42:26;12.50;99.90
45945;DHT22;31655;48.972;10.686;2024-02-15T08:44:52;13.60;99.90
45945;DHT22;31655;48.972;10.686;2024-02-15T08:47:17;14.80;99.90
45945;DHT22;31655;48.972;10.686;2024-02-15T08:49:43;16.00;99.90
45945;DHT22;31655;48.972;10.686;2024-02-15T08:52:08;17.50;99.90
45945;DHT22;31655;48.972;10.686;2024-02-15T08:54:34;18.30;99.90
45945;DHT22;31655;48.972;10.686;2024-02-15T08:56:59;16.50;99.90
45945;DHT22;31655;48.972;10.686;2024-02-15T08:59:26;16.30;99.90
45945;DHT22;31655;48.972;10.686;2024-02-15T09:01:54;16.40;99.90
45945;DHT22;31655;48.972;10.686;2024-02-15T09:04:21;16.40;99.90
45945;DHT22;31655;48.972;10.686;2024-02-15T09:06:48;17.80;99.90
45945;DHT22;31655;48.972;10.686;2024-02-15T09:09:14;17.00;99.90
45945;DHT22;31655;48.972;10.686;2024-02-15T09:11:40;17.50;99.90
45945;DHT22;31655;48.972;10.686;2024-02-15T09:14:06;17.80;99.90
45945;DHT22;31655;48.972;10.686;2024-02-15T09:16:31;17.50;99.90
45945;DHT22;31655;48.972;10.686;2024-02-15T09:18:58;19.00;99.90
45945;DHT22;31655;48.972;10.686;2024-02-15T09:21:26;17.90;99.90
45945;DHT22;31655;48.972;10.686;2024-02-15T09:23:54;18.10;99.90
45945;DHT22;31655;48.972;10.686;2024-02-15T09:26:20;18.10;99.90
45945;DHT22;31655;48.972;10.686;2024-02-15T09:28:45;17.80;99.90
45945;DHT22;31655;48.972;10.686;2024-02-15T09:31:14;18.60;99.90
45945;DHT22;31655;48.972;10.686;2024-02-15T09:33:40;18.50;99.90
45945;DHT22;31655;48.972;10.686;2024-02-15T09:36:06;19.70;99.90
45945;DHT22;31655;48.972;10.686;2024-02-15T09:38:32;19.00;99.90
45945;DHT22;31655;48.972;10.686;2024-02-15T09:40:57;19.00;99.90
45945;DHT22;31655;48.972;10.686;2024-02-15T09:43:23;19.10;99.90
45945;DHT22;31655;48.972;10.686;2024-02-15T09:45:52;19.10;99.90
45945;DHT22;31655;48.972;10.686;2024-02-15T09:48:18;19.00;99.90
45945;DHT22;31655;48.972;10.686;2024-02-15T09:50:46;18.70;99.90
45945;DHT22;31655;48.972;10.686;2024-02-15T09:53:13;18.60;99.50
45945;DHT22;31655;48.972;10.686;2024-02-15T09:55:40;18.30;99.30
45945;DHT22;31655;48.972;10.686;2024-02-15T09:58:07;19.60;98.20
45945;DHT22;31655;48.972;10.686;2024-02-15T10:00:35;19.00;98.10
45945;DHT22;31655;48.972;10.686;2024-02-15T10:03:02;18.90;96.70
45945;DHT22;31655;48.972;10.686;2024-02-15T10:05:31;18.80;95.00
45945;DHT22;31655;48.972;10.686;2024-02-15T10:07:56;18.80;95.20
45945;DHT22;31655;48.972;10.686;2024-02-15T10:10:25;20.50;96.00
45945;DHT22;31655;48.972;10.686;2024-02-15T10:12:53;19.80;95.50
45945;DHT22;31655;48.972;10.686;2024-02-15T10:15:36;18.90;94.00
45945;DHT22;31655;48.972;10.686;2024-02-15T10:18:09;18.40;93.90
45945;DHT22;31655;48.972;10.686;2024-02-15T10:20:40;18.40;93.60
45945;DHT22;31655;48.972;10.686;2024-02-15T10:23:13;18.00;93.70
45945;DHT22;31655;48.972;10.686;2024-02-15T10:25:40;17.40;93.60
45945;DHT22;31655;48.972;10.686;2024-02-15T10:28:12;18.40;95.50
45945;DHT22;31655;48.972;10.686;2024-02-15T10:30:42;17.10;95.10
45945;DHT22;31655;48.972;10.686;2024-02-15T10:33:26;17.00;97.00
45945;DHT22;31655;48.972;10.686;2024-02-15T10:36:07;17.00;97.00
45945;DHT22;31655;48.972;10.686;2024-02-15T10:38:33;17.10;97.40
45945;DHT22;31655;48.972;10.686;2024-02-15T10:41:06;17.10;97.80
45945;DHT22;31655;48.972;10.686;2024-02-15T10:43:33;17.20;97.50
45945;DHT22;31655;48.972;10.686;2024-02-15T10:46:00;17.20;97.20
45945;DHT22;31655;48.972;10.686;2024-02-15T10:48:29;17.50;97.20
45945;DHT22;31655;48.972;10.686;2024-02-15T10:50:56;17.60;97.10
45945;DHT22;31655;48.972;10.686;2024-02-15T10:53:30;18.70;97.80
45945;DHT22;31655;48.972;10.686;2024-02-15T10:58:33;17.30;96.70
45945;DHT22;31655;48.972;10.686;2024-02-15T11:01:01;16.70;97.70
45945;DHT22;31655;48.972;10.686;2024-02-15T11:03:35;16.70;98.00
45945;DHT22;31655;48.972;10.686;2024-02-15T11:06:07;16.70;99.90
45945;DHT22;31655;48.972;10.686;2024-02-15T11:08:35;16.90;99.90
45945;DHT22;31655;48.972;10.686;2024-02-15T11:11:01;18.40;98.60
45945;DHT22;31655;48.972;10.686;2024-02-15T11:13:30;17.30;97.60
45945;DHT22;31655;48.972;10.686;2024-02-15T11:15:56;17.30;98.00
45945;DHT22;31655;48.972;10.686;2024-02-15T11:18:43;17.80;97.40
45945;DHT22;31655;48.972;10.686;2024-02-15T11:21:17;17.70;96.30
45945;DHT22;31655;48.972;10.686;2024-02-15T11:23:43;17.40;96.60
45945;DHT22;31655;48.972;10.686;2024-02-15T11:28:55;16.70;96.70
45945;DHT22;31655;48.972;10.686;2024-02-15T11:31:53;16.70;97.20
45945;DHT22;31655;48.972;10.686;2024-02-15T11:34:41;16.90;98.00
45945;DHT22;31655;48.972;10.686;2024-02-15T11:37:07;17.00;97.20
45945;DHT22;31655;48.972;10.686;2024-02-15T11:39:42;16.80;97.70
45945;DHT22;31655;48.972;10.686;2024-02-15T11:42:28;16.60;98.60
45945;DHT22;31655;48.972;10.686;2024-02-15T11:45:06;16.30;99.00
45945;DHT22;31655;48.972;10.686;2024-02-15T11:47:39;16.10;99.90
45945;DHT22;31655;48.972;10.686;2024-02-15T11:50:09;16.30;99.90
45945;DHT22;31655;48.972;10.686;2024-02-15T11:52:45;16.40;99.90
45945;DHT22;31655;48.972;10.686;2024-02-15T11:55:13;16.40;99.90
45945;DHT22;31655;48.972;10.686;2024-02-15T11:57:42;16.50;99.90
45945;DHT22;31655;48.972;10.686;2024-02-15T12:00:23;16.70;99.70
45945;DHT22;31655;48.972;10.686;2024-02-15T12:03:07;16.70;99.90
45945;DHT22;31655;48.972;10.686;2024-02-15T12:05:51;16.30;99.90
45945;DHT22;31655;48.972;10.686;2024-02-15T12:08:36;16.10;99.90
45945;DHT22;31655;48.972;10.686;2024-02-15T12:11:20;16.20;99.90
45945;DHT22;31655;48.972;10.686;2024-02-15T12:14:05;17.10;99.90
45945;DHT22;31655;48.972;10.686;2024-02-15T12:17:02;15.90;99.90
45945;DHT22;31655;48.972;10.686;2024-02-15T12:19:48;15.90;99.90
45945;DHT22;31655;48.972;10.686;2024-02-15T12:22:31;15.70;99.90
45945;DHT22;31655;48.972;10.686;2024-02-15T12:25:01;15.20;99.90
45945;DHT22;31655;48.972;10.686;2024-02-15T12:27:31;15.20;99.90
45945;DHT22;31655;48.972;10.686;2024-02-15T12:29:58;14.90;99.90
45945;DHT22;31655;48.972;10.686;2024-02-15T12:32:27;14.90;99.90
45945;DHT22;31655;48.972;10.686;2024-02-15T12:35:02;15.10;99.90
45945;DHT22;31655;48.972;10.686;2024-02-15T12:37:34;15.30;99.90
45945;DHT22;31655;48.972;10.686;2024-02-15T12:40:17;15.50;99.90
45945;DHT22;31655;48.972;10.686;2024-02-15T12:42:43;15.60;99.90
45945;DHT22;31655;48.972;10.686;2024-02-15T12:45:20;15.60;99.90
45945;DHT22;31655;48.972;10.686;2024-02-15T12:47:50;15.80;99.90
45945;DHT22;31655;48.972;10.686;2024-02-15T12:50:18;16.10;99.90
45945;DHT22;31655;48.972;10.686;2024-02-15T12:52:46;15.60;99.90
45945;DHT22;31655;48.972;10.686;2024-02-15T12:55:25;15.20;99.90
45945;DHT22;31655;48.972;10.686;2024-02-15T12:57:52;15.40;99.90
45945;DHT22;31655;48.972;10.686;2024-02-15T13:00:21;15.20;99.90
45945;DHT22;31655;48.972;10.686;2024-02-15T13:02:50;15.40;99.90
45945;DHT22;31655;48.972;10.686;2024-02-15T13:05:17;15.60;99.90
45945;DHT22;31655;48.972;10.686;2024-02-15T13:07:47;15.60;99.90
45945;DHT22;31655;48.972;10.686;2024-02-15T13:10:14;15.60;99.90
45945;DHT22;31655;48.972;10.686;2024-02-15T13:12:44;15.60;99.90
45945;DHT22;31655;48.972;10.686;2024-02-15T13:15:12;15.40;99.90
45945;DHT22;31655;48.972;10.686;2024-02-15T13:17:43;15.40;99.90
45945;DHT22;31655;48.972;10.686;2024-02-15T13:20:10;15.40;99.90
45945;DHT22;31655;48.972;10.686;2024-02-15T13:22:39;15.50;99.90
45945;DHT22;31655;48.972;10.686;2024-02-15T13:25:06;15.60;99.90
45945;DHT22;31655;48.972;10.686;2024-02-15T13:27:33;15.60;99.90
45945;DHT22;31655;48.972;10.686;2024-02-15T13:29:59;15.60;99.90
45945;DHT22;31655;48.972;10.686;2024-02-15T13:32:26;15.70;99.90
45945;DHT22;31655;48.972;10.686;2024-02-15T13:34:51;15.90;99.90
45945;DHT22;31655;48.972;10.686;2024-02-15T13:37:20;15.90;99.90
45945;DHT22;31655;48.972;10.686;2024-02-15T13:39:49;16.30;99.90
45945;DHT22;31655;48.972;10.686;2024-02-15T13:42:16;16.20;99.90
45945;DHT22;31655;48.972;10.686;2024-02-15T13:44:44;17.80;99.90
45945;DHT22;31655;48.972;10.686;2024-02-15T13:47:09;18.20;99.90
45945;DHT22;31655;48.972;10.686;2024-02-15T13:49:37;16.30;99.90
45945;DHT22;31655;48.972;10.686;2024-02-15T13:52:07;16.90;99.90
45945;DHT22;31655;48.972;10.686;2024-02-15T13:54:32;15.70;99.90
45945;DHT22;31655;48.972;10.686;2024-02-15T13:57:01;15.70;99.90
45945;DHT22;31655;48.972;10.686;2024-02-15T13:59:28;15.90;99.90
45945;DHT22;31655;48.972;10.686;2024-02-15T14:01:57;18.50;99.90
45945;DHT22;31655;48.972;10.686;2024-02-15T14:04:23;15.80;99.90
45945;DHT22;31655;48.972;10.686;2024-02-15T14:06:49;16.20;99.90
45945;DHT22;31655;48.972;10.686;2024-02-15T14:09:14;15.50;99.90
45945;DHT22;31655;48.972;10.686;2024-02-15T14:11:42;15.30;99.90
45945;DHT22;31655;48.972;10.686;2024-02-15T14:14:08;15.40;99.90
45945;DHT22;31655;48.972;10.686;2024-02-15T14:16:34;14.90;99.90
45945;DHT22;31655;48.972;10.686;2024-02-15T14:18:59;14.90;99.90
45945;DHT22;31655;48.972;10.686;2024-02-15T14:21:25;14.80;99.90
45945;DHT22;31655;48.972;10.686;2024-02-15T14:23:51;14.70;99.90
45945;DHT22;31655;48.972;10.686;2024-02-15T14:26:17;14.80;99.90
45945;DHT22;31655;48.972;10.686;2024-02-15T14:28:43;14.60;99.90
45945;DHT22;31655;48.972;10.686;2024-02-15T14:31:10;14.60;99.90
45945;DHT22;31655;48.972;10.686;2024-02-15T14:33:55;14.40;99.90
45945;DHT22;31655;48.972;10.686;2024-02-15T14:36:21;14.30;99.90
45945;DHT22;31655;48.972;10.686;2024-02-15T14:38:47;14.40;99.90
45945;DHT22;31655;48.972;10.686;2024-02-15T14:41:12;15.40;99.90
45945;DHT22;31655;48.972;10.686;2024-02-15T14:43:38;14.30;99.90
45945;DHT22;31655;48.972;10.686;2024-02-15T14:46:04;14.30;99.90
45945;DHT22;31655;48.972;10.686;2024-02-15T14:48:35;14.30;99.90
45945;DHT22;31655;48.972;10.686;2024-02-15T14:51:01;14.30;99.90
45945;DHT22;31655;48.972;10.686;2024-02-15T14:53:27;14.30;99.90
45945;DHT22;31655;48.972;10.686;2024-02-15T14:55:53;14.30;99.90
45945;DHT22;31655;48.972;10.686;2024-02-15T14:58:20;14.10;99.90
45945;DHT22;31655;48.972;10.686;2024-02-15T15:00:47;13.90;99.90
45945;DHT22;31655;48.972;10.686;2024-02-15T15:03:13;13.90;99.90
45945;DHT22;31655;48.972;10.686;2024-02-15T15:05:39;13.80;99.90
45945;DHT22;31655;48.972;10.686;2024-02-15T15:08:24;13.70;99.90
45945;DHT22;31655;48.972;10.686;2024-02-15T15:11:08;13.80;99.90
45945;DHT22;31655;48.972;10.686;2024-02-15T15:13:52;13.70;99.90
45945;DHT22;31655;48.972;10.686;2024-02-15T15:16:18;13.70;99.90
45945;DHT22;31655;48.972;10.686;2024-02-15T15:18:46;13.60;99.90
45945;DHT22;31655;48.972;10.686;2024-02-15T15:21:13;13.50;99.90
45945;DHT22;31655;48.972;10.686;2024-02-15T15:23:39;13.50;99.90
45945;DHT22;31655;48.972;10.686;2024-02-15T15:26:07;13.50;99.90
45945;DHT22;31655;48.972;10.686;2024-02-15T15:28:39;13.40;99.90
45945;DHT22;31655;48.972;10.686;2024-02-15T15:31:04;13.40;99.90
45945;DHT22;31655;48.972;10.686;2024-02-15T15:33:32;13.30;99.90
45945;DHT22;31655;48.972;10.686;2024-02-15T15:35:59;13.20;99.90
45945;DHT22;31655;48.972;10.686;2024-02-15T15:38:25;15.70;99.90